createdAt,value
2016-05-29T00:00:40.776Z,0
2016-05-29T00:01:53.063Z,0
2016-05-29T00:02:40.594Z,0
2016-05-29T00:03:40.721Z,0
2016-05-29T00:04:40.709Z,0
2016-05-29T00:05:41.524Z,0
2016-05-29T00:06:40.512Z,0
2016-05-29T00:07:40.654Z,0
2016-05-29T00:08:40.485Z,0
2016-05-29T00:09:40.442Z,0
2016-05-29T00:10:40.584Z,0
2016-05-29T00:11:40.572Z,0
2016-05-29T00:12:40.542Z,0
2016-05-29T00:13:40.531Z,0
2016-05-29T00:14:40.517Z,0
2016-05-29T00:15:40.488Z,0
2016-05-29T00:16:40.319Z,0
2016-05-29T00:17:40.447Z,0
2016-05-29T00:18:40.434Z,0
2016-05-29T00:19:40.422Z,0
2016-05-29T00:20:40.096Z,0
2016-05-29T00:21:40.380Z,0
2016-05-29T00:22:40.352Z,0
2016-05-29T00:23:40.338Z,0
2016-05-29T00:24:40.310Z,0
2016-05-29T00:25:40.125Z,0
2016-05-29T00:26:40.268Z,0
2016-05-29T00:27:40.286Z,0
2016-05-29T00:28:40.226Z,0
2016-05-29T00:29:40.213Z,0
2016-05-29T00:30:40.185Z,0
2016-05-29T00:31:40.172Z,0
2016-05-29T00:32:40.174Z,0
2016-05-29T00:33:39.818Z,0
2016-05-29T00:34:40.118Z,0
2016-05-29T00:35:41.996Z,0
2016-05-29T00:36:40.076Z,0
2016-05-29T00:37:40.048Z,0
2016-05-29T00:38:40.034Z,0
2016-05-29T00:39:40.037Z,0
2016-05-29T00:40:39.681Z,0
2016-05-29T00:41:39.653Z,0
2016-05-29T00:42:39.951Z,0
2016-05-29T00:43:39.923Z,0
2016-05-29T00:44:39.911Z,0
2016-05-29T00:45:39.881Z,0
2016-05-29T00:46:39.869Z,0
2016-05-29T00:47:39.840Z,0
2016-05-29T00:48:39.671Z,0
2016-05-29T00:49:39.517Z,0
2016-05-29T00:50:39.645Z,0
2016-05-29T00:51:39.772Z,0
2016-05-29T00:52:39.745Z,0
2016-05-29T00:53:39.731Z,0
2016-05-29T00:54:39.719Z,0
2016-05-29T00:55:39.690Z,0
2016-05-29T00:56:39.677Z,0
2016-05-29T00:57:39.663Z,0
2016-05-29T00:58:39.480Z,0
2016-05-29T00:59:39.607Z,0
2016-05-29T01:00:39.593Z,0
2016-05-29T01:01:39.582Z,0
2016-05-29T01:02:39.552Z,0
2016-05-29T01:03:39.524Z,0
2016-05-29T01:04:39.510Z,0
2016-05-29T01:05:40.263Z,0
2016-05-29T01:06:39.485Z,0
2016-05-29T01:07:39.457Z,0
2016-05-29T01:08:39.443Z,0
2016-05-29T01:09:39.431Z,0
2016-05-29T01:10:39.230Z,0
2016-05-29T01:11:39.373Z,0
2016-05-29T01:12:39.345Z,0
2016-05-29T01:13:39.331Z,0
2016-05-29T01:14:39.319Z,0
2016-05-29T01:15:39.290Z,0
2016-05-29T01:16:39.262Z,0
2016-05-29T01:17:39.249Z,0
2016-05-29T01:18:39.080Z,0
2016-05-29T01:19:39.223Z,0
2016-05-29T01:20:39.553Z,0
2016-05-29T01:21:39.025Z,0
2016-05-29T01:22:39.153Z,0
2016-05-29T01:23:39.140Z,0
2016-05-29T01:24:39.111Z,0
2016-05-29T01:25:39.099Z,0
2016-05-29T01:26:39.070Z,0
2016-05-29T01:27:39.057Z,0
2016-05-29T01:28:39.029Z,0
2016-05-29T01:29:39.016Z,0
2016-05-29T01:30:38.847Z,0
2016-05-29T01:31:38.974Z,0
2016-05-29T01:32:38.961Z,0
2016-05-29T01:33:38.777Z,0
2016-05-29T01:34:38.904Z,0
2016-05-29T01:35:39.032Z,0
2016-05-29T01:36:38.863Z,0
2016-05-29T01:37:38.865Z,0
2016-05-29T01:38:38.852Z,0
2016-05-29T01:39:38.809Z,0
2016-05-29T01:40:38.795Z,0
2016-05-29T01:41:38.782Z,0
2016-05-29T01:42:38.598Z,0
2016-05-29T01:43:38.725Z,0
2016-05-29T01:44:38.712Z,0
2016-05-29T01:45:38.700Z,0
2016-05-29T01:46:38.687Z,0
2016-05-29T01:47:38.501Z,0
2016-05-29T01:48:38.629Z,0
2016-05-29T01:49:38.616Z,0
2016-05-29T01:50:38.603Z,0
2016-05-29T01:51:38.403Z,0
2016-05-29T01:52:38.561Z,0
2016-05-29T01:53:38.533Z,0
2016-05-29T01:54:38.192Z,0
2016-05-29T01:55:38.507Z,0
2016-05-29T01:56:38.463Z,0
2016-05-29T01:57:38.294Z,0
2016-05-29T01:58:38.437Z,0
2016-05-29T01:59:38.409Z,0
2016-05-29T02:00:38.411Z,0
2016-05-29T02:01:38.368Z,0
2016-05-29T02:02:38.354Z,0
2016-05-29T02:03:38.326Z,0
2016-05-29T02:04:38.329Z,0
2016-05-29T02:05:39.050Z,0
2016-05-29T02:06:37.960Z,0
2016-05-29T02:07:38.101Z,0
2016-05-29T02:08:38.230Z,0
2016-05-29T02:09:38.202Z,0
2016-05-29T02:10:38.188Z,0
2016-05-29T02:11:38.175Z,0
2016-05-29T02:12:38.148Z,0
2016-05-29T02:13:38.134Z,0
2016-05-29T02:14:38.106Z,0
2016-05-29T02:15:38.092Z,0
2016-05-29T02:16:38.064Z,0
2016-05-29T02:17:38.067Z,0
2016-05-29T02:18:38.023Z,0
2016-05-29T02:19:38.009Z,0
2016-05-29T02:20:38.669Z,0
2016-05-29T02:21:37.827Z,0
2016-05-29T02:22:37.955Z,0
2016-05-29T02:23:37.927Z,0
2016-05-29T02:24:37.897Z,0
2016-05-29T02:25:37.885Z,0
2016-05-29T02:26:37.888Z,0
2016-05-29T02:27:37.859Z,0
2016-05-29T02:28:37.830Z,0
2016-05-29T02:29:37.661Z,0
2016-05-29T02:30:37.789Z,0
2016-05-29T02:31:37.776Z,0
2016-05-29T02:32:37.747Z,0
2016-05-29T02:33:37.563Z,0
2016-05-29T02:34:37.550Z,0
2016-05-29T02:35:37.802Z,0
2016-05-29T02:36:37.524Z,0
2016-05-29T02:37:37.635Z,4
2016-05-29T02:38:37.467Z,4
2016-05-29T02:39:37.470Z,4
2016-05-29T02:40:37.581Z,4
2016-05-29T02:41:37.554Z,0
2016-05-29T02:42:37.243Z,0
2016-05-29T02:43:37.527Z,4
2016-05-29T02:44:37.358Z,4
2016-05-29T02:45:37.486Z,4
2016-05-29T02:46:37.301Z,8
2016-05-29T02:47:37.444Z,4
2016-05-29T02:48:37.276Z,8
2016-05-29T02:49:37.418Z,8
2016-05-29T02:50:37.859Z,8
2016-05-29T02:51:37.361Z,12
2016-05-29T02:52:37.175Z,12
2016-05-29T02:53:37.179Z,12
2016-05-29T02:54:37.306Z,16
2016-05-29T02:55:37.122Z,16
2016-05-29T02:56:37.265Z,20
2016-05-29T02:57:37.237Z,24
2016-05-29T02:58:37.239Z,28
2016-05-29T02:59:37.054Z,28
2016-05-29T03:00:37.027Z,32
2016-05-29T03:01:37.185Z,36
2016-05-29T03:02:37.000Z,40
2016-05-29T03:03:36.955Z,44
2016-05-29T03:04:37.099Z,48
2016-05-29T03:05:37.086Z,52
2016-05-29T03:06:37.057Z,56
2016-05-29T03:07:37.045Z,64
2016-05-29T03:08:37.032Z,72
2016-05-29T03:09:36.847Z,76
2016-05-29T03:10:36.990Z,80
2016-05-29T03:11:36.806Z,88
2016-05-29T03:12:36.480Z,88
2016-05-29T03:13:36.764Z,92
2016-05-29T03:14:36.892Z,96
2016-05-29T03:15:36.863Z,100
2016-05-29T03:16:36.851Z,100
2016-05-29T03:17:36.837Z,108
2016-05-29T03:18:36.808Z,104
2016-05-29T03:19:36.811Z,104
2016-05-29T03:20:36.517Z,104
2016-05-29T03:21:36.739Z,104
2016-05-29T03:22:36.569Z,100
2016-05-29T03:23:36.698Z,100
2016-05-29T03:24:36.700Z,100
2016-05-29T03:25:36.655Z,100
2016-05-29T03:26:36.659Z,100
2016-05-29T03:27:36.630Z,108
2016-05-29T03:28:36.602Z,112
2016-05-29T03:29:36.604Z,120
2016-05-29T03:30:36.575Z,128
2016-05-29T03:31:36.391Z,132
2016-05-29T03:32:36.533Z,148
2016-05-29T03:33:36.505Z,152
2016-05-29T03:34:36.493Z,160
2016-05-29T03:35:37.088Z,172
2016-05-29T03:36:36.451Z,176
2016-05-29T03:37:36.422Z,184
2016-05-29T03:38:36.254Z,192
2016-05-29T03:39:36.381Z,204
2016-05-29T03:40:36.352Z,216
2016-05-29T03:41:36.340Z,220
2016-05-29T03:42:36.185Z,224
2016-05-29T03:43:36.298Z,236
2016-05-29T03:44:36.270Z,240
2016-05-29T03:45:36.256Z,236
2016-05-29T03:46:36.243Z,232
2016-05-29T03:47:36.215Z,232
2016-05-29T03:48:36.045Z,240
2016-05-29T03:49:36.017Z,256
2016-05-29T03:50:36.176Z,268
2016-05-29T03:51:36.148Z,288
2016-05-29T03:52:35.947Z,308
2016-05-29T03:53:36.090Z,332
2016-05-29T03:54:36.078Z,348
2016-05-29T03:55:36.049Z,364
2016-05-29T03:56:36.052Z,380
2016-05-29T03:57:35.851Z,400
2016-05-29T03:58:35.994Z,428
2016-05-29T03:59:35.981Z,464
2016-05-29T04:00:35.812Z,504
2016-05-29T04:01:35.941Z,560
2016-05-29T04:02:35.911Z,608
2016-05-29T04:03:35.898Z,668
2016-05-29T04:04:35.870Z,704
2016-05-29T04:05:35.936Z,728
2016-05-29T04:06:35.844Z,756
2016-05-29T04:07:35.659Z,792
2016-05-29T04:08:35.788Z,828
2016-05-29T04:09:35.774Z,876
2016-05-29T04:10:35.745Z,936
2016-05-29T04:11:35.732Z,992
2016-05-29T04:12:35.704Z,1044
2016-05-29T04:13:35.566Z,1088
2016-05-29T04:14:35.678Z,1144
2016-05-29T04:15:35.649Z,1208
2016-05-29T04:16:35.637Z,1296
2016-05-29T04:17:35.608Z,1400
2016-05-29T04:18:35.595Z,1548
2016-05-29T04:19:35.410Z,1744
2016-05-29T04:20:35.429Z,1960
2016-05-29T04:21:35.525Z,2168
2016-05-29T04:22:35.372Z,2328
2016-05-29T04:23:35.484Z,2416
2016-05-29T04:24:35.470Z,2444
2016-05-29T04:25:35.301Z,2444
2016-05-29T04:26:35.428Z,2456
2016-05-29T04:27:35.401Z,2524
2016-05-29T04:28:35.263Z,2672
2016-05-29T04:29:35.218Z,2852
2016-05-29T04:30:35.346Z,3024
2016-05-29T04:31:35.317Z,3172
2016-05-29T04:32:35.320Z,3320
2016-05-29T04:33:35.276Z,3448
2016-05-29T04:34:35.264Z,3504
2016-05-29T04:35:35.891Z,3452
2016-05-29T04:36:35.831Z,3344
2016-05-29T04:37:35.208Z,3192
2016-05-29T04:38:35.195Z,3076
2016-05-29T04:39:35.011Z,2984
2016-05-29T04:40:35.138Z,2904
2016-05-29T04:41:35.126Z,2796
2016-05-29T04:42:35.096Z,2668
2016-05-29T04:43:34.929Z,2500
2016-05-29T04:44:35.071Z,2312
2016-05-29T04:45:35.042Z,2144
2016-05-29T04:46:35.030Z,2036
2016-05-29T04:47:34.845Z,1984
2016-05-29T04:48:34.973Z,1964
2016-05-29T04:49:34.960Z,1932
2016-05-29T04:50:35.384Z,1940
2016-05-29T04:51:35.387Z,1952
2016-05-29T04:52:34.920Z,1928
2016-05-29T04:53:34.736Z,1856
2016-05-29T04:54:34.864Z,1752
2016-05-29T04:55:34.695Z,1644
2016-05-29T04:56:34.822Z,1556
2016-05-29T04:57:34.809Z,1496
2016-05-29T04:58:34.797Z,1468
2016-05-29T04:59:34.767Z,1464
2016-05-29T05:00:34.599Z,1468
2016-05-29T05:01:34.570Z,1440
2016-05-29T05:02:34.698Z,1388
2016-05-29T05:03:34.544Z,1312
2016-05-29T05:04:34.688Z,1220
2016-05-29T05:05:35.330Z,1136
2016-05-29T05:06:35.021Z,1076
2016-05-29T05:07:34.618Z,1040
2016-05-29T05:08:34.432Z,1024
2016-05-29T05:09:34.577Z,996
2016-05-29T05:10:34.563Z,952
2016-05-29T05:11:34.535Z,912
2016-05-29T05:12:34.209Z,892
2016-05-29T05:13:34.180Z,892
2016-05-29T05:14:34.465Z,888
2016-05-29T05:15:34.310Z,876
2016-05-29T05:16:34.439Z,860
2016-05-29T05:17:34.270Z,836
2016-05-29T05:18:34.398Z,800
2016-05-29T05:19:34.228Z,808
2016-05-29T05:20:34.605Z,836
2016-05-29T05:21:34.343Z,872
2016-05-29T05:22:34.173Z,912
2016-05-29T05:23:34.286Z,952
2016-05-29T05:24:34.116Z,1000
2016-05-29T05:25:34.104Z,1080
2016-05-29T05:26:34.247Z,1216
2016-05-29T05:27:34.217Z,1368
2016-05-29T05:28:34.206Z,1528
2016-05-29T05:29:34.161Z,1656
2016-05-29T05:30:34.008Z,1744
2016-05-29T05:31:34.150Z,1812
2016-05-29T05:32:34.106Z,1888
2016-05-29T05:33:34.109Z,1992
2016-05-29T05:34:34.080Z,2140
2016-05-29T05:35:34.583Z,2372
2016-05-29T05:36:33.742Z,2656
2016-05-29T05:37:33.855Z,2912
2016-05-29T05:38:34.013Z,3112
2016-05-29T05:39:33.969Z,3088
2016-05-29T05:40:33.972Z,2752
2016-05-29T05:41:33.927Z,2288
2016-05-29T05:42:33.930Z,1992
2016-05-29T05:43:33.885Z,1888
2016-05-29T05:44:33.873Z,1848
2016-05-29T05:45:33.860Z,1820
2016-05-29T05:46:33.832Z,1724
2016-05-29T05:47:33.818Z,1516
2016-05-29T05:48:33.806Z,1496
2016-05-29T05:49:33.777Z,1432
2016-05-29T05:50:33.764Z,1304
2016-05-29T05:51:33.596Z,1184
2016-05-29T05:52:33.582Z,1136
2016-05-29T05:53:33.709Z,1140
2016-05-29T05:54:33.682Z,1172
2016-05-29T05:55:33.653Z,1192
2016-05-29T05:56:33.670Z,1216
2016-05-29T05:57:33.611Z,1272
2016-05-29T05:58:33.614Z,1380
2016-05-29T05:59:33.570Z,1516
2016-05-29T06:00:33.556Z,1720
2016-05-29T06:01:33.544Z,1944
2016-05-29T06:02:33.515Z,2152
2016-05-29T06:03:33.519Z,2344
2016-05-29T06:04:33.349Z,2556
2016-05-29T06:05:33.320Z,2760
2016-05-29T06:06:33.151Z,2960
2016-05-29T06:07:33.420Z,3172
2016-05-29T06:08:33.250Z,3416
2016-05-29T06:09:33.377Z,3624
2016-05-29T06:10:33.365Z,3812
2016-05-29T06:11:33.368Z,4012
2016-05-29T06:12:33.339Z,4148
2016-05-29T06:13:33.310Z,4172
2016-05-29T06:14:33.282Z,4136
2016-05-29T06:15:33.113Z,4148
2016-05-29T06:16:33.256Z,4400
2016-05-29T06:17:33.212Z,5000
2016-05-29T06:18:33.215Z,5792
2016-05-29T06:19:33.187Z,6628
2016-05-29T06:20:33.017Z,7284
2016-05-29T06:21:33.004Z,7508
2016-05-29T06:22:33.131Z,7412
2016-05-29T06:23:33.103Z,7300
2016-05-29T06:24:33.090Z,7220
2016-05-29T06:25:33.061Z,7204
2016-05-29T06:26:33.048Z,7144
2016-05-29T06:27:33.020Z,6928
2016-05-29T06:28:33.007Z,6856
2016-05-29T06:29:32.838Z,7156
2016-05-29T06:30:32.809Z,7556
2016-05-29T06:31:32.797Z,7764
2016-05-29T06:32:32.940Z,7856
2016-05-29T06:33:32.911Z,8312
2016-05-29T06:34:32.897Z,9036
2016-05-29T06:35:34.105Z,9640
2016-05-29T06:36:33.716Z,9892
2016-05-29T06:37:32.688Z,9964
2016-05-29T06:38:32.815Z,10052
2016-05-29T06:39:32.787Z,10004
2016-05-29T06:40:32.789Z,9924
2016-05-29T06:41:32.604Z,9680
2016-05-29T06:42:32.592Z,9252
2016-05-29T06:43:32.719Z,8704
2016-05-29T06:44:32.549Z,8148
2016-05-29T06:45:32.693Z,7524
2016-05-29T06:46:32.681Z,6888
2016-05-29T06:47:32.652Z,6348
2016-05-29T06:48:32.639Z,5928
2016-05-29T06:49:32.626Z,5672
2016-05-29T06:50:32.597Z,5492
2016-05-29T06:51:33.038Z,5340
2016-05-29T06:52:32.556Z,5212
2016-05-29T06:53:32.528Z,5068
2016-05-29T06:54:32.359Z,4840
2016-05-29T06:55:32.502Z,4488
2016-05-29T06:56:32.489Z,4160
2016-05-29T06:57:32.475Z,3928
2016-05-29T06:58:32.292Z,3784
2016-05-29T06:59:32.434Z,3728
2016-05-29T07:00:32.422Z,3764
2016-05-29T07:01:32.392Z,3868
2016-05-29T07:02:32.380Z,3988
2016-05-29T07:03:32.351Z,4188
2016-05-29T07:04:32.338Z,4408
2016-05-29T07:05:32.575Z,4544
2016-05-29T07:06:32.484Z,4512
2016-05-29T07:07:32.269Z,4336
2016-05-29T07:08:32.255Z,4088
2016-05-29T07:09:32.242Z,3980
2016-05-29T07:10:32.058Z,3996
2016-05-29T07:11:32.216Z,4148
2016-05-29T07:12:32.219Z,4508
2016-05-29T07:13:32.019Z,4736
2016-05-29T07:14:32.146Z,4852
2016-05-29T07:15:32.133Z,4816
2016-05-29T07:16:32.105Z,4836
2016-05-29T07:17:32.092Z,4912
2016-05-29T07:18:31.923Z,4772
2016-05-29T07:19:32.051Z,4384
2016-05-29T07:20:31.897Z,3836
2016-05-29T07:21:31.853Z,3616
2016-05-29T07:22:31.856Z,3664
2016-05-29T07:23:31.983Z,3840
2016-05-29T07:24:31.970Z,4016
2016-05-29T07:25:31.785Z,4116
2016-05-29T07:26:31.913Z,4240
2016-05-29T07:27:31.915Z,4436
2016-05-29T07:28:31.903Z,4728
2016-05-29T07:29:31.859Z,5148
2016-05-29T07:30:31.845Z,5592
2016-05-29T07:31:31.833Z,5980
2016-05-29T07:32:31.820Z,6424
2016-05-29T07:33:31.775Z,7056
2016-05-29T07:34:31.607Z,7916
2016-05-29T07:35:32.609Z,8444
2016-05-29T07:36:32.019Z,8336
2016-05-29T07:37:31.708Z,8012
2016-05-29T07:38:31.694Z,7704
2016-05-29T07:39:31.683Z,7288
2016-05-29T07:40:31.669Z,6880
2016-05-29T07:41:31.641Z,6696
2016-05-29T07:42:31.612Z,6632
2016-05-29T07:43:31.616Z,6604
2016-05-29T07:44:31.586Z,6612
2016-05-29T07:45:31.573Z,6712
2016-05-29T07:46:31.374Z,6992
2016-05-29T07:47:31.532Z,7428
2016-05-29T07:48:31.504Z,7892
2016-05-29T07:49:31.474Z,8340
2016-05-29T07:50:31.181Z,8852
2016-05-29T07:51:31.309Z,9436
2016-05-29T07:52:31.420Z,9736
2016-05-29T07:53:31.407Z,9876
2016-05-29T07:54:31.395Z,9936
2016-05-29T07:55:31.366Z,9672
2016-05-29T07:56:31.353Z,9140
2016-05-29T07:57:31.340Z,8732
2016-05-29T07:58:31.171Z,8624
2016-05-29T07:59:31.283Z,8836
2016-05-29T08:00:31.270Z,8584
2016-05-29T08:01:31.117Z,7944
2016-05-29T08:02:31.245Z,8052
2016-05-29T08:03:31.216Z,7132
2016-05-29T08:04:31.046Z,5728
2016-05-29T08:05:31.361Z,5360
2016-05-29T08:06:31.520Z,5768
2016-05-29T08:07:31.148Z,6044
2016-05-29T08:08:31.135Z,6456
2016-05-29T08:09:31.107Z,5988
2016-05-29T08:10:31.078Z,6828
2016-05-29T08:11:31.081Z,6852
2016-05-29T08:12:31.068Z,6068
2016-05-29T08:13:31.039Z,5368
2016-05-29T08:14:31.026Z,5056
2016-05-29T08:15:31.014Z,4504
2016-05-29T08:16:30.985Z,4048
2016-05-29T08:17:30.799Z,3764
2016-05-29T08:18:30.944Z,3504
2016-05-29T08:19:30.946Z,3440
2016-05-29T08:20:31.652Z,3348
2016-05-29T08:21:31.826Z,2976
2016-05-29T08:22:30.877Z,3064
2016-05-29T08:23:30.848Z,2768
2016-05-29T08:24:30.851Z,2388
2016-05-29T08:25:30.821Z,2104
2016-05-29T08:26:30.793Z,2272
2016-05-29T08:27:30.803Z,2260
2016-05-29T08:28:30.796Z,2176
2016-05-29T08:29:30.806Z,1944
2016-05-29T08:30:30.814Z,1452
2016-05-29T08:31:30.824Z,1548
2016-05-29T08:32:30.834Z,1340
2016-05-29T08:33:30.799Z,1092
2016-05-29T08:34:30.622Z,1060
2016-05-29T08:35:30.633Z,1148
2016-05-29T08:36:31.644Z,1016
2016-05-29T08:37:30.774Z,1204
2016-05-29T08:38:30.733Z,1808
2016-05-29T08:39:30.567Z,2124
2016-05-29T08:40:30.698Z,2460
2016-05-29T08:41:30.672Z,3328
2016-05-29T08:42:30.504Z,3848
2016-05-29T08:43:30.492Z,4104
2016-05-29T08:44:30.621Z,4444
2016-05-29T08:45:30.624Z,4892
2016-05-29T08:46:30.595Z,5392
2016-05-29T08:47:30.583Z,5964
2016-05-29T08:48:30.555Z,6668
2016-05-29T08:49:30.543Z,7548
2016-05-29T08:50:31.515Z,8484
2016-05-29T08:51:30.533Z,9296
2016-05-29T08:52:30.474Z,9776
2016-05-29T08:53:30.305Z,10008
2016-05-29T08:54:30.448Z,10040
2016-05-29T08:55:30.421Z,9948
2016-05-29T08:56:30.392Z,9880
2016-05-29T08:57:30.395Z,9704
2016-05-29T08:58:30.382Z,8940
2016-05-29T08:59:30.337Z,7296
2016-05-29T09:00:30.325Z,9364
2016-05-29T09:01:30.343Z,9256
2016-05-29T09:02:30.331Z,5264
2016-05-29T09:03:30.630Z,5316
2016-05-29T09:04:30.101Z,6528
2016-05-29T09:05:30.088Z,8564
2016-05-29T09:06:30.903Z,11084
2016-05-29T09:07:30.375Z,11220
2016-05-29T09:08:30.191Z,11400
2016-05-29T09:09:30.177Z,12532
2016-05-29T09:10:29.992Z,12320
2016-05-29T09:11:30.135Z,11892
2016-05-29T09:12:32.780Z,11936
2016-05-29T09:13:33.485Z,12684
2016-05-29T09:14:29.925Z,12620
2016-05-29T09:15:30.052Z,14228
2016-05-29T09:16:30.055Z,15732
2016-05-29T09:17:32.527Z,14880
2016-05-29T09:18:29.998Z,16588
2016-05-29T09:19:30.001Z,17856
2016-05-29T09:20:29.816Z,20352
2016-05-29T09:21:30.116Z,23168
2016-05-29T09:22:29.774Z,23936
2016-05-29T09:23:29.762Z,24864
2016-05-29T09:24:29.593Z,25536
2016-05-29T09:25:29.876Z,22816
2016-05-29T09:26:29.864Z,23712
2016-05-29T09:27:29.867Z,24032
2016-05-29T09:28:29.837Z,23904
2016-05-29T09:29:29.809Z,23616
2016-05-29T09:30:29.500Z,23520
2016-05-29T09:31:29.627Z,24704
2016-05-29T09:32:29.770Z,25088
2016-05-29T09:33:29.773Z,23648
2016-05-29T09:34:29.745Z,27712
2016-05-29T09:35:29.747Z,26240
2016-05-29T09:36:30.312Z,27360
2016-05-29T09:37:30.019Z,29344
2016-05-29T09:38:29.661Z,26112
2016-05-29T09:39:29.649Z,23904
2016-05-29T09:40:29.635Z,19008
2016-05-29T09:41:29.622Z,17056
2016-05-29T09:42:29.313Z,15876
2016-05-29T09:43:29.597Z,16668
2016-05-29T09:44:29.615Z,16464
2016-05-29T09:45:29.571Z,16904
2016-05-29T09:46:29.543Z,14804
2016-05-29T09:47:29.546Z,15236
2016-05-29T09:48:31.594Z,15240
2016-05-29T09:49:29.363Z,14652
2016-05-29T09:50:29.694Z,13532
2016-05-29T09:51:29.946Z,11864
2016-05-29T09:52:36.184Z,9984
2016-05-29T09:53:29.295Z,9996
2016-05-29T09:54:29.424Z,9192
2016-05-29T09:55:29.410Z,9704
2016-05-29T09:56:29.398Z,10320
2016-05-29T09:57:29.072Z,13320
2016-05-29T09:58:29.231Z,15656
2016-05-29T09:59:31.312Z,12560
2016-05-29T10:00:29.345Z,13156
2016-05-29T10:01:29.162Z,10280
2016-05-29T10:02:29.320Z,10592
2016-05-29T10:03:29.292Z,10076
2016-05-29T10:04:35.075Z,10876
2016-05-29T10:05:29.264Z,9708
2016-05-29T10:06:29.253Z,9080
2016-05-29T10:07:29.083Z,8540
2016-05-29T10:08:29.211Z,8132
2016-05-29T10:09:29.197Z,9228
2016-05-29T10:10:30.576Z,9732
2016-05-29T10:11:29.188Z,9336
2016-05-29T10:12:29.159Z,11408
2016-05-29T10:13:29.146Z,13104
2016-05-29T10:14:28.961Z,10740
2016-05-29T10:15:28.964Z,9096
2016-05-29T10:16:29.076Z,9664
2016-05-29T10:17:29.063Z,8984
2016-05-29T10:18:28.909Z,10204
2016-05-29T10:19:29.038Z,9528
2016-05-29T10:20:29.040Z,8244
2016-05-29T10:21:28.746Z,8312
2016-05-29T10:22:28.998Z,8740
2016-05-29T10:23:28.971Z,9104
2016-05-29T10:24:28.973Z,11452
2016-05-29T10:25:28.928Z,12572
2016-05-29T10:26:28.916Z,11548
2016-05-29T10:27:28.903Z,10364
2016-05-29T10:28:28.890Z,9700
2016-05-29T10:29:28.876Z,8924
2016-05-29T10:30:28.723Z,7768
2016-05-29T10:31:28.851Z,7452
2016-05-29T10:32:28.681Z,6564
2016-05-29T10:33:28.653Z,5788
2016-05-29T10:34:28.812Z,7296
2016-05-29T10:35:28.800Z,6092
2016-05-29T10:36:28.598Z,6500
2016-05-29T10:37:28.742Z,6872
2016-05-29T10:38:28.728Z,10320
2016-05-29T10:39:28.700Z,13920
2016-05-29T10:40:28.688Z,11348
2016-05-29T10:41:28.519Z,11200
2016-05-29T10:42:28.661Z,8480
2016-05-29T10:43:28.492Z,11136
2016-05-29T10:44:28.636Z,10684
2016-05-29T10:45:28.591Z,9216
2016-05-29T10:46:28.579Z,8220
2016-05-29T10:47:28.566Z,8368
2016-05-29T10:48:28.569Z,9972
2016-05-29T10:49:28.540Z,7696
2016-05-29T10:50:28.511Z,8004
2016-05-29T10:51:28.655Z,7248
2016-05-29T10:52:28.485Z,5824
2016-05-29T10:53:28.176Z,5768
2016-05-29T10:54:28.304Z,4336
2016-05-29T10:55:28.290Z,3528
2016-05-29T10:56:28.277Z,3248
2016-05-29T10:57:28.405Z,4140
2016-05-29T10:58:28.392Z,3212
2016-05-29T10:59:28.239Z,2916
2016-05-29T11:00:28.195Z,3036
2016-05-29T11:01:28.198Z,2944
2016-05-29T11:02:28.168Z,3128
2016-05-29T11:03:28.312Z,3168
2016-05-29T11:04:28.299Z,4080
2016-05-29T11:05:28.739Z,3524
2016-05-29T11:06:29.117Z,4664
2016-05-29T11:07:28.229Z,7752
2016-05-29T11:08:28.216Z,8036
2016-05-29T11:09:28.203Z,6752
2016-05-29T11:10:28.175Z,7956
2016-05-29T11:11:28.161Z,8616
2016-05-29T11:12:28.149Z,6668
2016-05-29T11:13:28.167Z,7992
2016-05-29T11:14:28.122Z,6144
2016-05-29T11:15:28.094Z,6872
2016-05-29T11:16:28.299Z,7832
2016-05-29T11:17:28.068Z,7132
2016-05-29T11:18:27.883Z,7104
2016-05-29T11:19:28.027Z,7172
2016-05-29T11:20:28.482Z,7340
2016-05-29T11:21:29.126Z,7000
2016-05-29T11:22:27.988Z,8876
2016-05-29T11:23:27.960Z,10200
2016-05-29T11:24:27.946Z,11232
2016-05-29T11:25:27.918Z,10336
2016-05-29T11:26:27.904Z,8624
2016-05-29T11:27:27.893Z,6812
2016-05-29T11:28:27.863Z,6392
2016-05-29T11:29:27.865Z,6204
2016-05-29T11:30:27.838Z,6804
2016-05-29T11:31:27.825Z,6828
2016-05-29T11:32:27.796Z,6776
2016-05-29T11:33:27.783Z,7756
2016-05-29T11:34:27.770Z,8596
2016-05-29T11:35:27.929Z,8408
2016-05-29T11:36:27.432Z,6784
2016-05-29T11:37:27.716Z,6596
2016-05-29T11:38:27.531Z,6084
2016-05-29T11:39:27.705Z,6244
2016-05-29T11:40:27.662Z,6524
2016-05-29T11:41:27.648Z,7192
2016-05-29T11:42:27.636Z,7464
2016-05-29T11:43:27.607Z,6472
2016-05-29T11:44:27.453Z,7068
2016-05-29T11:45:27.597Z,6980
2016-05-29T11:46:27.552Z,7508
2016-05-29T11:47:27.383Z,7872
2016-05-29T11:48:27.527Z,7672
2016-05-29T11:49:27.341Z,7544
2016-05-29T11:50:27.485Z,7216
2016-05-29T11:51:28.082Z,6528
2016-05-29T11:52:27.459Z,5992
2016-05-29T11:53:27.446Z,5788
2016-05-29T11:54:27.418Z,5472
2016-05-29T11:55:27.405Z,5548
2016-05-29T11:56:27.220Z,5944
2016-05-29T11:57:27.363Z,6648
2016-05-29T11:58:27.366Z,5804
2016-05-29T11:59:27.181Z,5544
2016-05-29T12:00:27.324Z,5264
2016-05-29T12:01:27.296Z,4908
2016-05-29T12:02:27.142Z,4244
2016-05-29T12:03:27.254Z,4332
2016-05-29T12:04:27.085Z,4280
2016-05-29T12:05:27.229Z,4016
2016-05-29T12:06:27.247Z,3988
2016-05-29T12:07:27.187Z,4544
2016-05-29T12:08:27.175Z,4172
2016-05-29T12:09:27.161Z,4420
2016-05-29T12:10:27.133Z,4016
2016-05-29T12:11:26.964Z,3972
2016-05-29T12:12:27.091Z,4096
2016-05-29T12:13:27.078Z,3992
2016-05-29T12:14:26.909Z,4220
2016-05-29T12:15:27.037Z,4164
2016-05-29T12:16:27.024Z,4232
2016-05-29T12:17:27.011Z,4852
2016-05-29T12:18:26.826Z,5312
2016-05-29T12:19:26.985Z,5052
2016-05-29T12:20:26.800Z,4856
2016-05-29T12:21:26.960Z,4416
2016-05-29T12:22:26.930Z,4492
2016-05-29T12:23:26.746Z,4564
2016-05-29T12:24:26.888Z,4460
2016-05-29T12:25:26.861Z,4528
2016-05-29T12:26:26.848Z,4572
2016-05-29T12:27:26.834Z,4576
2016-05-29T12:28:26.665Z,4480
2016-05-29T12:29:26.793Z,4472
2016-05-29T12:30:26.609Z,4904
2016-05-29T12:31:26.752Z,5288
2016-05-29T12:32:26.739Z,5236
2016-05-29T12:33:26.553Z,5876
2016-05-29T12:34:26.712Z,6056
2016-05-29T12:35:26.732Z,6488
2016-05-29T12:36:27.781Z,7020
2016-05-29T12:37:26.487Z,7768
2016-05-29T12:38:26.489Z,9192
2016-05-29T12:39:26.617Z,8048
2016-05-29T12:40:26.588Z,8276
2016-05-29T12:41:26.560Z,8624
2016-05-29T12:42:26.547Z,8656
2016-05-29T12:43:29.299Z,8084
2016-05-29T12:44:26.521Z,8008
2016-05-29T12:45:26.492Z,7512
2016-05-29T12:46:26.323Z,7472
2016-05-29T12:47:26.466Z,7276
2016-05-29T12:48:26.453Z,7768
2016-05-29T12:49:26.425Z,8196
2016-05-29T12:50:26.397Z,8464
2016-05-29T12:51:26.336Z,9000
2016-05-29T12:52:26.371Z,10440
2016-05-29T12:53:26.357Z,10480
2016-05-29T12:54:26.330Z,9772
2016-05-29T12:55:26.316Z,10516
2016-05-29T12:56:26.304Z,10992
2016-05-29T12:57:26.274Z,10996
2016-05-29T12:58:26.277Z,10660
2016-05-29T12:59:26.249Z,10132
2016-05-29T13:00:26.236Z,11252
2016-05-29T13:01:26.223Z,11444
2016-05-29T13:02:26.194Z,10024
2016-05-29T13:03:26.040Z,11008
2016-05-29T13:04:26.168Z,12124
2016-05-29T13:05:26.156Z,11840
2016-05-29T13:06:26.674Z,11992
2016-05-29T13:07:26.098Z,12828
2016-05-29T13:08:26.117Z,13480
2016-05-29T13:09:25.917Z,12808
2016-05-29T13:10:26.044Z,9976
2016-05-29T13:11:26.047Z,10732
2016-05-29T13:12:25.877Z,10480
2016-05-29T13:13:26.006Z,10144
2016-05-29T13:14:25.992Z,8052
2016-05-29T13:15:25.964Z,6940
2016-05-29T13:16:25.794Z,6956
2016-05-29T13:17:25.781Z,6444
2016-05-29T13:18:25.925Z,7276
2016-05-29T13:19:25.896Z,6380
2016-05-29T13:20:25.868Z,6516
2016-05-29T13:21:26.699Z,6836
2016-05-29T13:22:25.842Z,5552
2016-05-29T13:23:25.844Z,5468
2016-05-29T13:24:25.816Z,5784
2016-05-29T13:25:25.819Z,7420
2016-05-29T13:26:25.618Z,6944
2016-05-29T13:27:25.605Z,8456
2016-05-29T13:28:25.765Z,9596
2016-05-29T13:29:25.579Z,10716
2016-05-29T13:30:25.566Z,8912
2016-05-29T13:31:25.538Z,7272
2016-05-29T13:32:25.682Z,7308
2016-05-29T13:33:25.653Z,8232
2016-05-29T13:34:25.499Z,7784
2016-05-29T13:35:25.627Z,7868
2016-05-29T13:36:25.629Z,8100